Time;durP1;ratioP1;P1;durP2;ratioP2;P2;SDS_P1;SDS_P2;PMS_P1;PMS_P2;Temp;Humidity;BMP_temperature;BMP_pressure;BME280_temperature;BME280_humidity;BME280_pressure;Samples;Min_cycle;Max_cycle;Signal;HPM_P1;HPM_P2
2021/12/22 00:01:24;;;;;;;;;;;;;;;;;;5047489;28;19972;-62
2021/12/22 00:03:50;;;;;;;;;;;;;;;;;;5047820;28;19975;-62
2021/12/22 00:06:20;;;;;;;;;;;;;;;;;;5045723;28;19925;-62
2021/12/22 00:08:46;;;;;;;;;;;;;;;;;;5047502;28;20000;-62
2021/12/22 00:11:12;;;;;;;;;;;;;;;;;;5048168;28;19920;-62
2021/12/22 00:13:38;;;;;;;;;;;;;;;;;;5046125;28;19921;-62
2021/12/22 00:16:04;;;;;;;;;;;;;;;;;;5030049;28;19943;-62
2021/12/22 00:18:30;;;;;;;;;;;;;;;;;;5029171;28;20382;-62
2021/12/22 00:20:56;;;;;;;;;;;;;;;;;;5047565;28;19921;-64
2021/12/22 00:23:22;;;;;;;;;;;;;;;;;;5047031;28;19921;-62
2021/12/22 00:25:48;;;;;;;;;;;;;;;;;;5047398;28;19927;-62
2021/12/22 00:28:14;;;;;;;;;;;;;;;;;;5047647;28;20294;-62
2021/12/22 00:30:40;;;;;;;;;;;;;;;;;;5046572;28;19921;-62
2021/12/22 00:33:09;;;;;;;;;;;;;;;;;;5047071;28;19920;-62
2021/12/22 00:35:42;;;;;;;;;;;;;;;;;;5047248;28;19925;-62
2021/12/22 00:38:08;;;;;;;;;;;;;;;;;;5046559;28;19920;-62
2021/12/22 00:40:34;;;;;;;;;;;;;;;;;;5046919;28;20406;-62
2021/12/22 00:43:00;;;;;;;;;;;;;;;;;;5047120;28;19916;-62
2021/12/22 00:45:28;;;;;;;;;;;;;;;;;;5045611;28;19921;-62
2021/12/22 00:47:54;;;;;;;;;;;;;;;;;;5046948;28;20657;-62
2021/12/22 00:50:20;;;;;;;;;;;;;;;;;;5046709;28;20417;-63
2021/12/22 00:52:46;;;;;;;;;;;;;;;;;;5046494;28;19929;-62
2021/12/22 00:55:17;;;;;;;;;;;;;;;;;;5047077;28;19925;-62
2021/12/22 00:57:43;;;;;;;;;;;;;;;;;;5046720;28;19921;-63
2021/12/22 01:00:09;;;;;;;;;;;;;;;;;;5046056;28;19921;-62
2021/12/22 01:02:35;;;;;;;;;;;;;;;;;;5045958;28;19925;-62
2021/12/22 01:05:01;;;;;;;;;;;;;;;;;;5046652;28;19926;-62
2021/12/22 01:07:27;;;;;;;;;;;;;;;;;;5046144;28;19913;-62
2021/12/22 01:09:53;;;;;;;;;;;;;;;;;;5045997;28;19920;-62
2021/12/22 01:12:19;;;;;;;;;;;;;;;;;;5034108;28;19924;-63
2021/12/22 01:14:45;;;;;;;;;;;;;;;;;;5025810;28;19913;-63
2021/12/22 01:17:13;;;;;;;;;;;;;;;;;;5026201;28;20023;-62
2021/12/22 01:20:02;;;;;;;;;;;;;;;;;;5026649;28;19928;-62
2021/12/22 01:22:36;;;;;;;;;;;;;;;;;;5026153;28;20343;-62
2021/12/22 01:25:04;;;;;;;;;;;;;;;;;;5026124;28;20437;-62
2021/12/22 01:27:34;;;;;;;;;;;;;;;;;;5026023;28;19921;-62
2021/12/22 01:30:00;;;;;;;;;;;;;;;;;;5025315;28;20347;-62
2021/12/22 01:32:27;;;;;;;;;;;;;;;;;;5025993;28;19921;-63
2021/12/22 01:34:53;;;;;;;;;;;;;;;;;;5026118;28;19921;-62
2021/12/22 01:37:19;;;;;;;;;;;;;;;;;;5025373;28;19928;-62
2021/12/22 01:39:45;;;;;;;;;;;;;;;;;;5026002;28;19921;-62
2021/12/22 01:42:11;;;;;;;;;;;;;;;;;;5026659;28;19923;-62
2021/12/22 01:44:49;;;;;;;;;;;;;;;;;;5024636;28;20647;-62
2021/12/22 01:49:59;;;;;;;;;;;;;;;;;;5025323;28;19925;-62
2021/12/22 01:52:25;;;;;;;;;;;;;;;;;;5025749;28;19924;-62
2021/12/22 01:54:53;;;;;;;;;;;;;;;;;;5008360;28;19921;-63
2021/12/22 01:57:19;;;;;;;;;;;;;;;;;;5025114;28;19928;-62
2021/12/22 01:59:45;;;;;;;;;;;;;;;;;;5025686;28;19925;-63
2021/12/22 02:02:11;;;;;;;;;;;;;;;;;;5025726;28;20604;-62
2021/12/22 02:04:38;;;;;;;;;;;;;;;;;;5025244;28;19975;-62
2021/12/22 02:07:04;;;;;;;;;;;;;;;;;;5039805;23;19925;-64
2021/12/22 02:12:14;;;;;;;;;;;;;;;;;;5025598;28;20007;-64
2021/12/22 02:14:41;;;;;;;;;;;;;;;;;;5007569;28;19921;-63
2021/12/22 02:17:09;;;;;;;;;;;;;;;;;;5025167;28;20435;-64
2021/12/22 02:19:35;;;;;;;;;;;;;;;;;;5025035;28;19932;-64
2021/12/22 02:22:07;;;;;;;;;;;;;;;;;;5025686;28;19921;-64
2021/12/22 02:24:33;;;;;;;;;;;;;;;;;;5025722;28;20500;-64
2021/12/22 02:27:05;;;;;;;;;;;;;;;;;;5025070;28;19975;-64
2021/12/22 02:29:39;;;;;;;;;;;;;;;;;;5027179;28;20030;-64
2021/12/22 02:32:13;;;;;;;;;;;;;;;;;;5029758;28;19925;-64
2021/12/22 02:34:43;;;;;;;;;;;;;;;;;;5029340;28;20378;-64
2021/12/22 02:37:12;;;;;;;;;;;;;;;;;;5029463;28;19983;-64
2021/12/22 02:39:38;;;;;;;;;;;;;;;;;;5028875;28;19920;-63
2021/12/22 02:42:09;;;;;;;;;;;;;;;;;;5011541;28;19931;-64
2021/12/22 02:44:35;;;;;;;;;;;;;;;;;;5028430;28;20283;-64
2021/12/22 02:47:01;;;;;;;;;;;;;;;;;;5028917;28;19921;-64
2021/12/22 02:49:28;;;;;;;;;;;;;;;;;;5029064;28;19921;-64
2021/12/22 02:51:54;;;;;;;;;;;;;;;;;;5029550;28;19925;-64
2021/12/22 02:54:25;;;;;;;;;;;;;;;;;;5029102;28;19927;-64
2021/12/22 02:56:57;;;;;;;;;;;;;;;;;;5028846;28;19928;-64
2021/12/22 02:59:50;;;;;;;;;;;;;;;;;;5028313;28;19992;-64
2021/12/22 03:02:18;;;;;;;;;;;;;;;;;;5029083;28;20410;-63
2021/12/22 03:04:51;;;;;;;;;;;;;;;;;;5011687;28;19928;-63
2021/12/22 03:07:19;;;;;;;;;;;;;;;;;;5010318;28;19927;-64
2021/12/22 03:09:45;;;;;;;;;;;;;;;;;;5029260;28;20011;-64
2021/12/22 03:12:11;;;;;;;;;;;;;;;;;;5029220;28;20391;-64
2021/12/22 03:14:37;;;;;;;;;;;;;;;;;;5027425;28;19921;-64
2021/12/22 03:17:03;;;;;;;;;;;;;;;;;;5028751;28;19921;-64
2021/12/22 03:19:29;;;;;;;;;;;;;;;;;;5028259;28;19921;-64
2021/12/22 03:22:01;;;;;;;;;;;;;;;;;;5028165;28;20272;-64
2021/12/22 03:24:28;;;;;;;;;;;;;;;;;;5028653;28;19921;-64
2021/12/22 03:26:54;;;;;;;;;;;;;;;;;;5010615;28;19975;-64
2021/12/22 03:29:20;;;;;;;;;;;;;;;;;;5009631;28;19927;-64
2021/12/22 03:31:46;;;;;;;;;;;;;;;;;;5028451;28;19928;-65
2021/12/22 03:34:12;;;;;;;;;;;;;;;;;;5028583;28;20007;-64
2021/12/22 03:36:40;;;;;;;;;;;;;;;;;;5028299;28;20625;-64
2021/12/22 03:39:06;;;;;;;;;;;;;;;;;;5028402;28;20008;-64
2021/12/22 03:41:34;;;;;;;;;;;;;;;;;;5028012;28;19924;-64
2021/12/22 03:44:00;;;;;;;;;;;;;;;;;;5027642;28;19948;-64
2021/12/22 03:46:26;;;;;;;;;;;;;;;;;;5027748;28;19932;-64
2021/12/22 03:48:52;;;;;;;;;;;;;;;;;;5027999;28;20329;-64
2021/12/22 03:51:18;;;;;;;;;;;;;;;;;;5028070;28;19921;-64
2021/12/22 03:53:44;;;;;;;;;;;;;;;;;;5027986;28;19921;-64
2021/12/22 03:56:10;;;;;;;;;;;;;;;;;;5028307;28;20498;-64
2021/12/22 03:58:36;;;;;;;;;;;;;;;;;;5026815;28;19925;-64
2021/12/22 04:01:02;;;;;;;;;;;;;;;;;;5027707;28;19928;-64
2021/12/22 04:03:29;;;;;;;;;;;;;;;;;;5027526;28;20003;-64
2021/12/22 04:05:55;;;;;;;;;;;;;;;;;;5010059;28;19943;-64
2021/12/22 04:08:22;;;;;;;;;;;;;;;;;;5027472;28;20164;-64
2021/12/22 04:10:49;;;;;;;;;;;;;;;;;;5027791;28;20049;-64
2021/12/22 04:13:15;;;;;;;;;;;;;;;;;;5026856;28;20493;-65
2021/12/22 04:15:41;;;;;;;;;;;;;;;;;;5028080;28;19927;-64
2021/12/22 04:18:07;;;;;;;;;;;;;;;;;;5026838;28;20020;-64
2021/12/22 04:20:33;;;;;;;;;;;;;;;;;;5027553;28;20021;-64
2021/12/22 04:22:59;;;;;;;;;;;;;;;;;;5027359;28;20007;-64
2021/12/22 04:25:25;;;;;;;;;;;;;;;;;;5026931;28;19921;-64
2021/12/22 04:27:51;;;;;;;;;;;;;;;;;;5026674;28;19920;-64
2021/12/22 04:30:17;;;;;;;;;;;;;;;;;;5027063;28;19940;-64
2021/12/22 04:32:43;;;;;;;;;;;;;;;;;;5027542;28;19921;-64
2021/12/22 04:35:10;;;;;;;;;;;;;;;;;;5027543;28;19967;-63
2021/12/22 04:37:36;;;;;;;;;;;;;;;;;;5026901;28;20358;-64
2021/12/22 04:40:02;;;;;;;;;;;;;;;;;;5027221;28;19921;-64
2021/12/22 04:42:28;;;;;;;;;;;;;;;;;;5026508;28;19913;-64
2021/12/22 04:44:56;;;;;;;;;;;;;;;;;;5026443;28;19921;-64
2021/12/22 04:47:22;;;;;;;;;;;;;;;;;;5026839;28;19986;-64
2021/12/22 04:49:48;;;;;;;;;;;;;;;;;;5008711;28;20382;-64
2021/12/22 04:52:18;;;;;;;;;;;;;;;;;;5026963;28;20334;-63
2021/12/22 04:55:03;;;;;;;;;;;;;;;;;;5027188;28;19913;-63
2021/12/22 04:57:29;;;;;;;;;;;;;;;;;;5026322;28;20016;-64
2021/12/22 04:59:55;;;;;;;;;;;;;;;;;;5026027;28;20019;-64
2021/12/22 05:02:21;;;;;;;;;;;;;;;;;;5026390;28;19921;-63
2021/12/22 05:04:47;;;;;;;;;;;;;;;;;;5026512;28;20007;-64
2021/12/22 05:07:13;;;;;;;;;;;;;;;;;;5026801;28;19921;-64
2021/12/22 05:09:39;;;;;;;;;;;;;;;;;;5026465;28;19990;-64
2021/12/22 05:12:05;;;;;;;;;;;;;;;;;;5026047;28;20192;-64
2021/12/22 05:14:31;;;;;;;;;;;;;;;;;;5025789;28;20488;-64
2021/12/22 05:17:01;;;;;;;;;;;;;;;;;;5026350;28;19931;-63
2021/12/22 05:19:27;;;;;;;;;;;;;;;;;;5008275;28;19921;-63
2021/12/22 05:21:53;;;;;;;;;;;;;;;;;;5026543;28;19967;-64
2021/12/22 05:24:19;;;;;;;;;;;;;;;;;;5025948;28;19921;-64
2021/12/22 05:26:45;;;;;;;;;;;;;;;;;;5025834;28;19967;-64
2021/12/22 05:29:12;;;;;;;;;;;;;;;;;;5026235;28;19964;-64
2021/12/22 05:31:38;;;;;;;;;;;;;;;;;;5025936;28;19999;-64
2021/12/22 05:34:04;;;;;;;;;;;;;;;;;;5025962;28;20326;-64
2021/12/22 05:36:30;;;;;;;;;;;;;;;;;;5025862;28;19920;-64
2021/12/22 05:38:56;;;;;;;;;;;;;;;;;;5025904;28;19920;-64
2021/12/22 05:41:22;;;;;;;;;;;;;;;;;;5025781;28;20012;-64
2021/12/22 05:43:48;;;;;;;;;;;;;;;;;;5024888;28;19923;-64
2021/12/22 05:46:14;;;;;;;;;;;;;;;;;;5026512;28;19921;-63
2021/12/22 05:48:40;;;;;;;;;;;;;;;;;;5026176;28;19978;-63
2021/12/22 05:51:07;;;;;;;;;;;;;;;;;;5025491;28;20389;-63
2021/12/22 05:53:33;;;;;;;;;;;;;;;;;;5025948;28;19975;-64
2021/12/22 05:55:59;;;;;;;;;;;;;;;;;;5025562;28;19917;-63
2021/12/22 05:58:25;;;;;;;;;;;;;;;;;;5024654;28;19928;-64
2021/12/22 06:00:51;;;;;;;;;;;;;;;;;;5025635;28;19967;-64
2021/12/22 06:03:17;;;;;;;;;;;;;;;;;;5024443;28;19980;-64
2021/12/22 06:05:43;;;;;;;;;;;;;;;;;;5025580;28;19921;-64
2021/12/22 06:08:09;;;;;;;;;;;;;;;;;;5007058;28;19928;-64
2021/12/22 06:10:35;;;;;;;;;;;;;;;;;;5025274;28;20378;-64
2021/12/22 06:13:01;;;;;;;;;;;;;;;;;;5023693;28;19913;-64
2021/12/22 06:15:27;;;;;;;;;;;;;;;;;;5022511;28;19921;-64
2021/12/22 06:17:56;;;;;;;;;;;;;;;;;;5005987;28;19991;-64
2021/12/22 06:20:23;;;;;;;;;;;;;;;;;;5024326;28;19920;-64
2021/12/22 06:22:50;;;;;;;;;;;;;;;;;;5024764;28;19921;-64
2021/12/22 06:25:16;;;;;;;;;;;;;;;;;;5025493;28;19956;-64
2021/12/22 06:27:42;;;;;;;;;;;;;;;;;;5024764;28;20324;-64
2021/12/22 06:30:08;;;;;;;;;;;;;;;;;;5025116;28;19995;-63
2021/12/22 06:32:34;;;;;;;;;;;;;;;;;;5025090;28;19921;-64
2021/12/22 06:35:00;;;;;;;;;;;;;;;;;;5025447;28;19928;-63
2021/12/22 06:37:26;;;;;;;;;;;;;;;;;;5024777;28;19921;-64
2021/12/22 06:39:52;;;;;;;;;;;;;;;;;;5024921;28;19923;-63
2021/12/22 06:42:18;;;;;;;;;;;;;;;;;;5025178;28;20298;-66
2021/12/22 06:44:44;;;;;;;;;;;;;;;;;;4990638;28;19921;-66
2021/12/22 06:47:10;;;;;;;;;;;;;;;;;;5007852;28;19921;-65
2021/12/22 06:49:36;;;;;;;;;;;;;;;;;;5025006;28;19921;-66
2021/12/22 06:52:02;;;;;;;;;;;;;;;;;;5024997;28;20336;-66
2021/12/22 06:54:28;;;;;;;;;;;;;;;;;;5024697;28;19947;-66
2021/12/22 06:56:54;;;;;;;;;;;;;;;;;;5024546;28;19917;-65
2021/12/22 06:59:21;;;;;;;;;;;;;;;;;;5024350;28;20334;-65
2021/12/22 07:01:47;;;;;;;;;;;;;;;;;;5025035;28;20016;-67
2021/12/22 07:04:13;;;;;;;;;;;;;;;;;;5024985;28;19928;-66
2021/12/22 07:06:39;;;;;;;;;;;;;;;;;;5024280;28;19921;-66
2021/12/22 07:09:05;;;;;;;;;;;;;;;;;;5025178;28;19948;-66
2021/12/22 07:11:31;;;;;;;;;;;;;;;;;;5024871;28;20403;-66
2021/12/22 07:13:57;;;;;;;;;;;;;;;;;;5024249;28;19921;-66
2021/12/22 07:16:23;;;;;;;;;;;;;;;;;;5026981;28;19921;-66
2021/12/22 07:18:49;;;;;;;;;;;;;;;;;;5025097;28;19921;-66
2021/12/22 07:21:15;;;;;;;;;;;;;;;;;;5023504;28;20022;-67
2021/12/22 07:23:41;;;;;;;;;;;;;;;;;;5024845;28;19984;-66
2021/12/22 07:26:13;;;;;;;;;;;;;;;;;;5026022;28;19921;-65
2021/12/22 07:28:39;;;;;;;;;;;;;;;;;;5025422;28;20354;-66
2021/12/22 07:31:05;;;;;;;;;;;;;;;;;;5026863;28;20413;-66
2021/12/22 07:33:31;;;;;;;;;;;;;;;;;;5008889;28;19921;-66
2021/12/22 07:35:58;;;;;;;;;;;;;;;;;;5022313;28;19925;-66
2021/12/22 07:38:24;;;;;;;;;;;;;;;;;;5027047;28;21939;-67
2021/12/22 07:40:50;;;;;;;;;;;;;;;;;;5021519;28;19921;-67
2021/12/22 07:43:16;;;;;;;;;;;;;;;;;;5026643;28;20023;-67
2021/12/22 07:45:42;;;;;;;;;;;;;;;;;;5028257;28;19921;-66
2021/12/22 07:48:08;;;;;;;;;;;;;;;;;;5012961;28;20011;-66
2021/12/22 07:50:34;;;;;;;;;;;;;;;;;;5026383;28;20574;-67
2021/12/22 07:53:00;;;;;;;;;;;;;;;;;;5017397;28;20027;-67
2021/12/22 07:55:26;;;;;;;;;;;;;;;;;;5009529;28;19921;-65
2021/12/22 07:57:52;;;;;;;;;;;;;;;;;;5026724;28;19921;-65
2021/12/22 08:00:18;;;;;;;;;;;;;;;;;;5009870;28;19921;-66
2021/12/22 08:02:44;;;;;;;;;;;;;;;;;;5024134;28;19917;-65
2021/12/22 08:05:10;;;;;;;;;;;;;;;;;;5006812;28;19967;-65
2021/12/22 08:07:36;;;;;;;;;;;;;;;;;;5022376;28;20157;-65
2021/12/22 08:10:03;;;;;;;;;;;;;;;;;;5022660;28;20174;-65
2021/12/22 08:12:29;;;;;;;;;;;;;;;;;;5023985;28;20285;-67
2021/12/22 08:14:55;;;;;;;;;;;;;;;;;;5023783;28;20325;-66
2021/12/22 08:17:21;;;;;;;;;;;;;;;;;;5023975;28;20389;-65
2021/12/22 08:19:48;;;;;;;;;;;;;;;;;;5014279;28;20405;-66
2021/12/22 08:22:14;;;;;;;;;;;;;;;;;;5005397;28;19955;-67
2021/12/22 08:24:40;;;;;;;;;;;;;;;;;;4987993;28;19980;-65
2021/12/22 08:27:06;;;;;;;;;;;;;;;;;;5004178;28;19921;-65
2021/12/22 08:29:33;;;;;;;;;;;;;;;;;;5004250;28;20019;-65
2021/12/22 08:31:59;;;;;;;;;;;;;;;;;;5004842;28;20293;-65
2021/12/22 08:34:34;;;;;;;;;;;;;;;;;;5003980;28;19918;-65
2021/12/22 08:39:45;;;;;;;;;;;;;;;;;;5004144;28;20339;-67
2021/12/22 08:42:11;;;;;;;;;;;;;;;;;;5013502;28;20367;-66
2021/12/22 08:44:37;;;;;;;;;;;;;;;;;;5022797;28;20289;-66
2021/12/22 08:47:03;;;;;;;;;;;;;;;;;;5022887;28;19964;-66
2021/12/22 08:49:29;;;;;;;;;;;;;;;;;;5023607;28;20110;-65
2021/12/22 08:51:55;;;;;;;;;;;;;;;;;;5023533;28;19983;-66
2021/12/22 08:54:21;;;;;;;;;;;;;;;;;;5023691;28;20362;-66
2021/12/22 08:56:47;;;;;;;;;;;;;;;;;;5024391;28;19925;-67
2021/12/22 08:59:13;;;;;;;;;;;;;;;;;;5023203;28;19921;-67
2021/12/22 09:01:39;;;;;;;;;;;;;;;;;;5006080;28;19921;-67
2021/12/22 09:04:05;;;;;;;;;;;;;;;;;;5023960;28;19931;-67
2021/12/22 09:06:31;;;;;;;;;;;;;;;;;;5023324;28;19921;-66
2021/12/22 09:08:58;;;;;;;;;;;;;;;;;;5023923;28;19932;-67
2021/12/22 09:11:24;;;;;;;;;;;;;;;;;;5023284;28;20031;-66
2021/12/22 09:13:50;;;;;;;;;;;;;;;;;;5022938;28;20306;-64
2021/12/22 09:16:16;;;;;;;;;;;;;;;;;;5023950;28;19921;-65
2021/12/22 09:18:42;;;;;;;;;;;;;;;;;;5023235;28;19928;-63
2021/12/22 09:21:08;;;;;;;;;;;;;;;;;;5022999;28;19925;-63
2021/12/22 09:23:34;;;;;;;;;;;;;;;;;;5022872;28;20022;-62
2021/12/22 09:26:00;;;;;;;;;;;;;;;;;;5023236;28;19927;-62
2021/12/22 09:28:26;;;;;;;;;;;;;;;;;;5022136;28;19929;-63
2021/12/22 09:30:52;;;;;;;;;;;;;;;;;;5021942;28;19933;-63
2021/12/22 09:33:19;;;;;;;;;;;;;;;;;;5020529;28;19925;-64
2021/12/22 09:35:45;;;;;;;;;;;;;;;;;;5023727;28;20008;-66
2021/12/22 09:38:11;;;;;;;;;;;;;;;;;;5023527;28;20015;-65
2021/12/22 09:40:37;;;;;;;;;;;;;;;;;;5022705;28;19921;-64
2021/12/22 09:43:03;;;;;;;;;;;;;;;;;;5020249;28;20593;-65
2021/12/22 09:45:29;;;;;;;;;;;;;;;;;;5005127;28;20026;-64
2021/12/22 09:48:19;;;;;;;;;;;;;;;;;;5005172;28;19928;-64
2021/12/22 09:53:12;;;;;;;;;;;;;;;;;;5025233;28;19932;-65
2021/12/22 09:55:38;;;;;;;;;;;;;;;;;;5024951;28;19929;-63
2021/12/22 09:58:04;;;;;;;;;;;;;;;;;;5024741;28;19928;-65
2021/12/22 10:00:30;;;;;;;;;;;;;;;;;;5025165;28;20436;-65
2021/12/22 10:02:56;;;;;;;;;;;;;;;;;;5024389;28;19916;-64
2021/12/22 10:05:22;;;;;;;;;;;;;;;;;;5024372;28;19925;-64
2021/12/22 10:07:48;;;;;;;;;;;;;;;;;;5024249;28;19921;-66
2021/12/22 10:10:15;;;;;;;;;;;;;;;;;;5024899;28;20680;-65
2021/12/22 10:12:43;;;;;;;;;;;;;;;;;;5022960;28;19951;-64
2021/12/22 10:15:10;;;;;;;;;;;;;;;;;;5023618;28;20000;-65
2021/12/22 10:17:36;;;;;;;;;;;;;;;;;;5023746;28;19921;-64
2021/12/22 10:20:02;;;;;;;;;;;;;;;;;;5024972;28;19921;-64
2021/12/22 10:22:28;;;;;;;;;;;;;;;;;;5023903;28;19940;-65
2021/12/22 10:24:54;;;;;;;;;;;;;;;;;;5025566;28;19944;-64
2021/12/22 10:27:20;;;;;;;;;;;;;;;;;;5024495;28;20370;-64
2021/12/22 10:29:46;;;;;;;;;;;;;;;;;;5024892;28;19927;-65
2021/12/22 10:32:12;;;;;;;;;;;;;;;;;;5025594;28;19928;-63
2021/12/22 10:34:38;;;;;;;;;;;;;;;;;;5007494;28;19921;-64
2021/12/22 10:37:04;;;;;;;;;;;;;;;;;;5024907;28;19936;-64
2021/12/22 10:39:30;;;;;;;;;;;;;;;;;;5025358;28;19927;-64
2021/12/22 10:41:56;;;;;;;;;;;;;;;;;;5024263;28;19925;-65
2021/12/22 10:44:22;;;;;;;;;;;;;;;;;;5024773;28;20410;-66
2021/12/22 10:46:48;;;;;;;;;;;;;;;;;;5025190;28;19928;-65
2021/12/22 10:49:15;;;;;;;;;;;;;;;;;;5025992;28;20288;-67
2021/12/22 10:51:42;;;;;;;;;;;;;;;;;;5028237;28;19963;-65
2021/12/22 10:54:08;;;;;;;;;;;;;;;;;;5017861;28;19928;-65
2021/12/22 10:56:35;;;;;;;;;;;;;;;;;;5009181;28;20134;-65
2021/12/22 10:59:01;;;;;;;;;;;;;;;;;;5008405;28;19921;-65
2021/12/22 11:01:27;;;;;;;;;;;;;;;;;;5008927;28;20048;-65
2021/12/22 11:04:02;;;;;;;;;;;;;;;;;;5009188;28;19930;-65
2021/12/22 11:06:29;;;;;;;;;;;;;;;;;;5018055;28;19921;-65
2021/12/22 11:08:55;;;;;;;;;;;;;;;;;;5028772;28;20363;-65
2021/12/22 11:11:21;;;;;;;;;;;;;;;;;;5028861;28;20370;-65
2021/12/22 11:13:47;;;;;;;;;;;;;;;;;;5025927;28;20297;-66
2021/12/22 11:16:14;;;;;;;;;;;;;;;;;;5027600;28;20551;-67
2021/12/22 11:18:40;;;;;;;;;;;;;;;;;;5026814;28;19928;-66
2021/12/22 11:21:06;;;;;;;;;;;;;;;;;;5007137;28;19929;-66
2021/12/22 11:23:32;;;;;;;;;;;;;;;;;;5023377;28;19921;-66
2021/12/22 11:25:58;;;;;;;;;;;;;;;;;;5007826;28;20365;-66
2021/12/22 11:28:24;;;;;;;;;;;;;;;;;;5025144;28;19928;-66
2021/12/22 11:30:50;;;;;;;;;;;;;;;;;;5026517;28;19950;-66
2021/12/22 11:33:16;;;;;;;;;;;;;;;;;;5023150;28;20077;-66
2021/12/22 11:35:42;;;;;;;;;;;;;;;;;;5027240;28;19944;-66
2021/12/22 11:38:08;;;;;;;;;;;;;;;;;;5028491;28;20382;-66
2021/12/22 11:40:35;;;;;;;;;;;;;;;;;;5026871;28;19924;-65
2021/12/22 11:43:01;;;;;;;;;;;;;;;;;;5026393;28;19921;-65
2021/12/22 11:45:27;;;;;;;;;;;;;;;;;;5027952;28;20346;-66
2021/12/22 11:47:53;;;;;;;;;;;;;;;;;;5027541;28;19921;-67
2021/12/22 11:50:19;;;;;;;;;;;;;;;;;;5011635;28;19928;-66
2021/12/22 11:52:45;;;;;;;;;;;;;;;;;;5003019;28;19932;-66
2021/12/22 11:55:11;;;;;;;;;;;;;;;;;;5027499;28;19944;-66
2021/12/22 11:57:38;;;;;;;;;;;;;;;;;;5018842;28;19933;-65
2021/12/22 12:00:04;;;;;;;;;;;;;;;;;;5017284;28;19988;-66
2021/12/22 12:02:30;;;;;;;;;;;;;;;;;;5024384;28;19954;-66
2021/12/22 12:04:56;;;;;;;;;;;;;;;;;;5024885;28;20310;-66
2021/12/22 12:07:22;;;;;;;;;;;;;;;;;;5009007;28;19925;-66
2021/12/22 12:09:48;;;;;;;;;;;;;;;;;;5030102;28;19928;-66
2021/12/22 12:12:16;;;;;;;;;;;;;;;;;;5027290;28;19931;-66
2021/12/22 12:22:42;;;;;;;;;;;;;;;;;;5015046;28;19921;-66
2021/12/22 12:25:08;;;;;;;;;;;;;;;;;;5028087;28;20321;-65
2021/12/22 12:27:34;;;;;;;;;;;;;;;;;;5025951;28;19947;-66
2021/12/22 12:30:01;;;;;;;;;;;;;;;;;;5015257;28;20367;-65
2021/12/22 12:32:27;;;;;;;;;;;;;;;;;;5029961;28;19929;-66
2021/12/22 12:34:53;;;;;;;;;;;;;;;;;;5026579;28;19921;-66
2021/12/22 12:37:19;;;;;;;;;;;;;;;;;;5020725;28;19925;-66
2021/12/22 12:39:45;;;;;;;;;;;;;;;;;;5014326;28;19967;-67
2021/12/22 12:42:11;;;;;;;;;;;;;;;;;;5017781;28;20352;-66
2021/12/22 12:44:37;;;;;;;;;;;;;;;;;;5020614;28;19961;-67
2021/12/22 12:47:03;;;;;;;;;;;;;;;;;;5015378;28;20598;-67
2021/12/22 12:49:30;;;;;;;;;;;;;;;;;;5014411;28;20353;-66
2021/12/22 12:51:57;;;;;;;;;;;;;;;;;;5011640;28;19925;-66
2021/12/22 12:54:24;;;;;;;;;;;;;;;;;;5014456;28;20771;-66
2021/12/22 12:56:50;;;;;;;;;;;;;;;;;;5012323;28;19917;-66
2021/12/22 12:59:16;;;;;;;;;;;;;;;;;;5014110;28;19929;-67
2021/12/22 13:01:42;;;;;;;;;;;;;;;;;;5018496;28;19925;-66
2021/12/22 13:04:08;;;;;;;;;;;;;;;;;;5011990;28;19927;-67
2021/12/22 13:06:34;;;;;;;;;;;;;;;;;;5015533;28;19929;-67
2021/12/22 13:09:00;;;;;;;;;;;;;;;;;;5013938;28;20016;-66
2021/12/22 13:11:26;;;;;;;;;;;;;;;;;;5012606;28;19925;-66
2021/12/22 13:16:37;;;;;;;;;;;;;;;;;;4991643;28;19968;-67
2021/12/22 13:19:04;;;;;;;;;;;;;;;;;;5014443;28;20593;-67
2021/12/22 13:21:30;;;;;;;;;;;;;;;;;;5010269;28;19921;-67
2021/12/22 13:23:56;;;;;;;;;;;;;;;;;;4992282;28;19922;-67
2021/12/22 13:26:22;;;;;;;;;;;;;;;;;;5013162;28;19929;-68
2021/12/22 13:28:48;;;;;;;;;;;;;;;;;;5016815;28;20322;-67
2021/12/22 13:31:14;;;;;;;;;;;;;;;;;;5016624;28;19917;-66
2021/12/22 13:33:40;;;;;;;;;;;;;;;;;;5018998;28;19925;-67
2021/12/22 13:36:07;;;;;;;;;;;;;;;;;;5011192;28;19923;-66
2021/12/22 13:38:35;;;;;;;;;;;;;;;;;;5015086;28;19955;-66
2021/12/22 13:41:01;;;;;;;;;;;;;;;;;;4997504;28;19944;-66
2021/12/22 13:43:27;;;;;;;;;;;;;;;;;;5010206;28;19925;-67
2021/12/22 13:45:53;;;;;;;;;;;;;;;;;;5018854;28;19991;-67
2021/12/22 13:48:19;;;;;;;;;;;;;;;;;;5015459;28;20263;-66
2021/12/22 13:50:45;;;;;;;;;;;;;;;;;;5011193;28;19924;-66
2021/12/22 13:53:11;;;;;;;;;;;;;;;;;;5015707;28;19925;-66
2021/12/22 13:55:37;;;;;;;;;;;;;;;;;;5010874;28;20373;-66
2021/12/22 13:58:03;;;;;;;;;;;;;;;;;;5012278;28;19921;-66
2021/12/22 14:00:29;;;;;;;;;;;;;;;;;;5009460;28;19921;-66
2021/12/22 14:02:55;;;;;;;;;;;;;;;;;;4993778;28;19932;-66
2021/12/22 14:05:21;;;;;;;;;;;;;;;;;;5008687;28;19925;-66
2021/12/22 14:07:47;;;;;;;;;;;;;;;;;;5005359;28;19933;-66
2021/12/22 14:10:13;;;;;;;;;;;;;;;;;;5008751;28;19925;-66
2021/12/22 14:12:40;;;;;;;;;;;;;;;;;;5007867;28;20393;-66
2021/12/22 14:15:06;;;;;;;;;;;;;;;;;;5012246;28;20007;-66
2021/12/22 14:17:34;;;;;;;;;;;;;;;;;;5012764;28;20282;-66
2021/12/22 14:20:01;;;;;;;;;;;;;;;;;;5013471;28;19968;-66
2021/12/22 14:22:27;;;;;;;;;;;;;;;;;;5009686;28;20395;-65
2021/12/22 14:24:53;;;;;;;;;;;;;;;;;;5011300;28;20291;-66
2021/12/22 14:27:19;;;;;;;;;;;;;;;;;;5013309;28;20394;-66
2021/12/22 14:29:45;;;;;;;;;;;;;;;;;;5012576;28;19921;-66
2021/12/22 14:32:11;;;;;;;;;;;;;;;;;;5014914;28;19925;-66
2021/12/22 14:34:37;;;;;;;;;;;;;;;;;;5012318;28;20052;-66
2021/12/22 14:37:03;;;;;;;;;;;;;;;;;;5014560;28;20012;-66
2021/12/22 14:39:29;;;;;;;;;;;;;;;;;;5015345;28;19925;-66
2021/12/22 14:41:55;;;;;;;;;;;;;;;;;;5011919;28;19925;-66
2021/12/22 14:44:21;;;;;;;;;;;;;;;;;;5010155;28;19933;-67
2021/12/22 14:46:47;;;;;;;;;;;;;;;;;;5012704;28;19921;-73
2021/12/22 14:49:13;;;;;;;;;;;;;;;;;;5013076;28;19922;-66
2021/12/22 14:51:42;;;;;;;;;;;;;;;;;;5016047;28;20359;-66
2021/12/22 14:54:08;;;;;;;;;;;;;;;;;;5014924;28;19921;-65
2021/12/22 14:56:34;;;;;;;;;;;;;;;;;;5013837;28;20003;-66
2021/12/22 14:59:00;;;;;;;;;;;;;;;;;;5014059;28;20765;-66
2021/12/22 15:01:26;;;;;;;;;;;;;;;;;;5017003;28;19922;-66
2021/12/22 15:03:55;;;;;;;;;;;;;;;;;;5014854;28;19929;-66
2021/12/22 15:06:22;;;;;;;;;;;;;;;;;;5013410;28;19964;-66
2021/12/22 15:08:48;;;;;;;;;;;;;;;;;;4996286;28;20000;-66
2021/12/22 15:11:14;;;;;;;;;;;;;;;;;;5013028;28;20323;-66
2021/12/22 15:13:40;;;;;;;;;;;;;;;;;;5013683;28;19922;-66
2021/12/22 15:16:06;;;;;;;;;;;;;;;;;;5017666;28;19968;-65
2021/12/22 15:18:32;;;;;;;;;;;;;;;;;;5012262;28;20059;-64
2021/12/22 15:20:58;;;;;;;;;;;;;;;;;;5013324;28;19921;-65
2021/12/22 15:23:24;;;;;;;;;;;;;;;;;;5013122;28;19921;-66
2021/12/22 15:25:50;;;;;;;;;;;;;;;;;;5015063;28;19983;-65
2021/12/22 15:28:16;;;;;;;;;;;;;;;;;;5014283;28;20590;-67
2021/12/22 15:30:43;;;;;;;;;;;;;;;;;;5013665;28;19944;-65
2021/12/22 15:33:10;;;;;;;;;;;;;;;;;;5012852;28;19928;-65
2021/12/22 15:35:36;;;;;;;;;;;;;;;;;;4995662;28;19992;-65
2021/12/22 15:38:02;;;;;;;;;;;;;;;;;;5016327;28;20023;-65
2021/12/22 15:40:28;;;;;;;;;;;;;;;;;;5014295;28;19931;-65
2021/12/22 15:42:54;;;;;;;;;;;;;;;;;;5017326;28;19921;-66
2021/12/22 15:45:20;;;;;;;;;;;;;;;;;;5008732;28;20401;-66
2021/12/22 15:47:46;;;;;;;;;;;;;;;;;;5026958;28;19925;-66
2021/12/22 15:50:12;;;;;;;;;;;;;;;;;;5025990;28;19928;-66
2021/12/22 15:52:39;;;;;;;;;;;;;;;;;;5015725;28;19921;-65
2021/12/22 15:55:05;;;;;;;;;;;;;;;;;;4992074;28;19979;-65
2021/12/22 15:57:31;;;;;;;;;;;;;;;;;;5008529;28;19922;-64
2021/12/22 15:59:58;;;;;;;;;;;;;;;;;;5013366;28;19921;-65
2021/12/22 16:02:24;;;;;;;;;;;;;;;;;;5017296;28;19921;-64
2021/12/22 16:04:50;;;;;;;;;;;;;;;;;;5025376;28;20382;-65
2021/12/22 16:07:16;;;;;;;;;;;;;;;;;;5022244;28;19929;-65
2021/12/22 16:09:42;;;;;;;;;;;;;;;;;;5023480;28;19927;-64
2021/12/22 16:12:08;;;;;;;;;;;;;;;;;;5021259;28;19921;-64
2021/12/22 16:14:34;;;;;;;;;;;;;;;;;;5019888;28;20674;-64
2021/12/22 16:17:00;;;;;;;;;;;;;;;;;;5019618;28;20577;-64
2021/12/22 16:19:26;;;;;;;;;;;;;;;;;;5023686;28;20410;-65
2021/12/22 16:21:52;;;;;;;;;;;;;;;;;;5024396;28;19964;-65
2021/12/22 16:24:18;;;;;;;;;;;;;;;;;;5023337;28;19921;-65
2021/12/22 16:26:44;;;;;;;;;;;;;;;;;;5026352;28;19921;-67
2021/12/22 16:29:10;;;;;;;;;;;;;;;;;;5009105;28;19967;-68
2021/12/22 16:31:37;;;;;;;;;;;;;;;;;;5022752;28;19925;-66
2021/12/22 16:34:03;;;;;;;;;;;;;;;;;;5012890;28;19925;-67
2021/12/22 16:36:29;;;;;;;;;;;;;;;;;;5025171;28;20005;-65
2021/12/22 16:38:55;;;;;;;;;;;;;;;;;;5025260;28;19975;-65
2021/12/22 16:41:21;;;;;;;;;;;;;;;;;;5023647;28;19921;-65
2021/12/22 16:43:47;;;;;;;;;;;;;;;;;;5008339;28;19921;-65
2021/12/22 16:46:13;;;;;;;;;;;;;;;;;;5017031;28;20363;-64
2021/12/22 16:48:39;;;;;;;;;;;;;;;;;;5019025;28;19922;-64
2021/12/22 16:51:05;;;;;;;;;;;;;;;;;;5022911;28;20623;-65
2021/12/22 16:53:31;;;;;;;;;;;;;;;;;;5021440;28;20012;-64
2021/12/22 16:55:58;;;;;;;;;;;;;;;;;;5019980;28;19921;-65
2021/12/22 16:58:24;;;;;;;;;;;;;;;;;;5021717;28;20028;-64
2021/12/22 17:00:50;;;;;;;;;;;;;;;;;;5021559;28;20078;-64
2021/12/22 17:03:16;;;;;;;;;;;;;;;;;;5023106;28;19920;-65